sensor_id;sensor_type;location;lat;lon;timestamp;temperature;humidity
16736;DHT22;17990;49.548;9.730;2023-08-24T00:01:13;17.50;99.90
16736;DHT22;17990;49.548;9.730;2023-08-24T00:03:40;17.40;99.90
16736;DHT22;17990;49.548;9.730;2023-08-24T00:06:07;17.40;99.90
16736;DHT22;17990;49.548;9.730;2023-08-24T00:08:34;17.40;99.90
16736;DHT22;17990;49.548;9.730;2023-08-24T00:11:02;17.40;99.90
16736;DHT22;17990;49.548;9.730;2023-08-24T00:13:28;17.40;99.90
16736;DHT22;17990;49.548;9.730;2023-08-24T00:15:57;17.30;99.90
16736;DHT22;17990;49.548;9.730;2023-08-24T00:18:24;17.30;99.90
16736;DHT22;17990;49.548;9.730;2023-08-24T00:20:51;17.30;99.90
16736;DHT22;17990;49.548;9.730;2023-08-24T00:23:18;17.30;99.90
16736;DHT22;17990;49.548;9.730;2023-08-24T00:25:45;17.30;99.90
16736;DHT22;17990;49.548;9.730;2023-08-24T00:28:11;17.30;99.90
16736;DHT22;17990;49.548;9.730;2023-08-24T00:30:38;17.20;99.90
16736;DHT22;17990;49.548;9.730;2023-08-24T00:33:06;17.20;99.90
16736;DHT22;17990;49.548;9.730;2023-08-24T00:35:33;17.20;99.90
16736;DHT22;17990;49.548;9.730;2023-08-24T00:38:00;17.10;99.90
16736;DHT22;17990;49.548;9.730;2023-08-24T00:40:26;17.10;99.90
16736;DHT22;17990;49.548;9.730;2023-08-24T00:42:53;17.00;99.90
16736;DHT22;17990;49.548;9.730;2023-08-24T00:45:20;17.00;99.90
16736;DHT22;17990;49.548;9.730;2023-08-24T00:47:48;17.00;99.90
16736;DHT22;17990;49.548;9.730;2023-08-24T00:50:17;17.00;99.90
16736;DHT22;17990;49.548;9.730;2023-08-24T00:52:45;17.00;99.90
16736;DHT22;17990;49.548;9.730;2023-08-24T00:55:13;16.90;99.90
16736;DHT22;17990;49.548;9.730;2023-08-24T00:57:40;16.80;99.90
16736;DHT22;17990;49.548;9.730;2023-08-24T01:00:08;16.80;99.90
16736;DHT22;17990;49.548;9.730;2023-08-24T01:02:36;16.80;99.90
16736;DHT22;17990;49.548;9.730;2023-08-24T01:05:03;16.70;99.90
16736;DHT22;17990;49.548;9.730;2023-08-24T01:07:32;16.70;99.90
16736;DHT22;17990;49.548;9.730;2023-08-24T01:10:00;16.70;99.90
16736;DHT22;17990;49.548;9.730;2023-08-24T01:12:36;16.60;99.90
16736;DHT22;17990;49.548;9.730;2023-08-24T01:15:09;16.60;99.90
16736;DHT22;17990;49.548;9.730;2023-08-24T01:17:42;16.60;99.90
16736;DHT22;17990;49.548;9.730;2023-08-24T01:20:09;16.60;99.90
16736;DHT22;17990;49.548;9.730;2023-08-24T01:22:55;16.50;99.90
16736;DHT22;17990;49.548;9.730;2023-08-24T01:25:32;16.40;99.90
16736;DHT22;17990;49.548;9.730;2023-08-24T01:28:03;16.40;99.90
16736;DHT22;17990;49.548;9.730;2023-08-24T01:30:32;16.40;99.90
16736;DHT22;17990;49.548;9.730;2023-08-24T01:33:02;16.40;99.90
16736;DHT22;17990;49.548;9.730;2023-08-24T01:35:29;16.30;99.90
16736;DHT22;17990;49.548;9.730;2023-08-24T01:37:55;16.20;99.90
16736;DHT22;17990;49.548;9.730;2023-08-24T01:40:26;16.20;99.90
16736;DHT22;17990;49.548;9.730;2023-08-24T01:43:01;16.10;99.90
16736;DHT22;17990;49.548;9.730;2023-08-24T01:45:31;16.10;99.90
16736;DHT22;17990;49.548;9.730;2023-08-24T01:48:01;16.10;99.90
16736;DHT22;17990;49.548;9.730;2023-08-24T01:50:29;16.10;99.90
16736;DHT22;17990;49.548;9.730;2023-08-24T01:52:57;16.10;99.90
16736;DHT22;17990;49.548;9.730;2023-08-24T01:55:24;16.00;99.90
16736;DHT22;17990;49.548;9.730;2023-08-24T01:57:51;16.00;99.90
16736;DHT22;17990;49.548;9.730;2023-08-24T02:00:17;16.00;99.90
16736;DHT22;17990;49.548;9.730;2023-08-24T02:02:46;16.10;99.90
16736;DHT22;17990;49.548;9.730;2023-08-24T02:05:12;16.00;99.90
16736;DHT22;17990;49.548;9.730;2023-08-24T02:07:39;16.00;99.90
16736;DHT22;17990;49.548;9.730;2023-08-24T02:10:06;16.00;99.90
16736;DHT22;17990;49.548;9.730;2023-08-24T02:12:33;16.00;99.90
16736;DHT22;17990;49.548;9.730;2023-08-24T02:15:00;16.00;99.90
16736;DHT22;17990;49.548;9.730;2023-08-24T02:17:28;15.90;99.90
16736;DHT22;17990;49.548;9.730;2023-08-24T02:19:56;15.80;99.90
16736;DHT22;17990;49.548;9.730;2023-08-24T02:22:23;15.80;99.90
16736;DHT22;17990;49.548;9.730;2023-08-24T02:24:49;15.90;99.90
16736;DHT22;17990;49.548;9.730;2023-08-24T02:27:16;15.90;99.90
16736;DHT22;17990;49.548;9.730;2023-08-24T02:29:43;15.80;99.90
16736;DHT22;17990;49.548;9.730;2023-08-24T02:32:10;15.80;99.90
16736;DHT22;17990;49.548;9.730;2023-08-24T02:34:37;15.70;99.90
16736;DHT22;17990;49.548;9.730;2023-08-24T02:37:06;15.70;99.90
16736;DHT22;17990;49.548;9.730;2023-08-24T02:39:33;15.80;99.90
16736;DHT22;17990;49.548;9.730;2023-08-24T02:42:00;15.80;99.90
16736;DHT22;17990;49.548;9.730;2023-08-24T02:44:28;15.80;99.90
16736;DHT22;17990;49.548;9.730;2023-08-24T02:46:54;15.80;99.90
16736;DHT22;17990;49.548;9.730;2023-08-24T02:49:21;15.80;99.90
16736;DHT22;17990;49.548;9.730;2023-08-24T02:51:48;15.80;99.90
16736;DHT22;17990;49.548;9.730;2023-08-24T02:54:16;15.80;99.90
16736;DHT22;17990;49.548;9.730;2023-08-24T02:56:43;15.80;99.90
16736;DHT22;17990;49.548;9.730;2023-08-24T02:59:10;15.80;99.90
16736;DHT22;17990;49.548;9.730;2023-08-24T03:01:36;15.70;99.90
16736;DHT22;17990;49.548;9.730;2023-08-24T03:04:03;15.70;99.90
16736;DHT22;17990;49.548;9.730;2023-08-24T03:06:30;15.80;99.90
16736;DHT22;17990;49.548;9.730;2023-08-24T03:08:59;15.70;99.90
16736;DHT22;17990;49.548;9.730;2023-08-24T03:11:27;15.70;99.90
16736;DHT22;17990;49.548;9.730;2023-08-24T03:13:54;15.70;99.90
16736;DHT22;17990;49.548;9.730;2023-08-24T03:16:21;15.70;99.90
16736;DHT22;17990;49.548;9.730;2023-08-24T03:18:47;15.70;99.90
16736;DHT22;17990;49.548;9.730;2023-08-24T03:21:15;15.70;99.90
16736;DHT22;17990;49.548;9.730;2023-08-24T03:23:41;15.70;99.90
16736;DHT22;17990;49.548;9.730;2023-08-24T03:26:08;15.70;99.90
16736;DHT22;17990;49.548;9.730;2023-08-24T03:28:36;15.60;99.90
16736;DHT22;17990;49.548;9.730;2023-08-24T03:31:03;15.60;99.90
16736;DHT22;17990;49.548;9.730;2023-08-24T03:33:30;15.60;99.90
16736;DHT22;17990;49.548;9.730;2023-08-24T03:35:58;15.60;99.90
16736;DHT22;17990;49.548;9.730;2023-08-24T03:38:25;15.60;99.90
16736;DHT22;17990;49.548;9.730;2023-08-24T03:40:52;15.60;99.90
16736;DHT22;17990;49.548;9.730;2023-08-24T03:43:25;15.60;99.90
16736;DHT22;17990;49.548;9.730;2023-08-24T03:45:53;15.50;99.90
16736;DHT22;17990;49.548;9.730;2023-08-24T03:48:20;15.50;99.90
16736;DHT22;17990;49.548;9.730;2023-08-24T03:50:47;15.50;99.90
16736;DHT22;17990;49.548;9.730;2023-08-24T03:53:14;15.50;99.90
16736;DHT22;17990;49.548;9.730;2023-08-24T03:55:41;15.50;99.90
16736;DHT22;17990;49.548;9.730;2023-08-24T03:58:07;15.40;99.90
16736;DHT22;17990;49.548;9.730;2023-08-24T04:00:34;15.40;99.90
16736;DHT22;17990;49.548;9.730;2023-08-24T04:03:03;15.40;99.90
16736;DHT22;17990;49.548;9.730;2023-08-24T04:05:29;15.40;99.90
16736;DHT22;17990;49.548;9.730;2023-08-24T04:07:56;15.50;99.90
16736;DHT22;17990;49.548;9.730;2023-08-24T04:10:23;15.60;99.90
16736;DHT22;17990;49.548;9.730;2023-08-24T04:12:50;15.60;99.90
16736;DHT22;17990;49.548;9.730;2023-08-24T04:15:16;15.70;99.90
16736;DHT22;17990;49.548;9.730;2023-08-24T04:17:43;15.70;99.90
16736;DHT22;17990;49.548;9.730;2023-08-24T04:20:11;15.80;99.90
16736;DHT22;17990;49.548;9.730;2023-08-24T04:22:38;15.80;99.90
16736;DHT22;17990;49.548;9.730;2023-08-24T04:25:05;15.90;99.90
16736;DHT22;17990;49.548;9.730;2023-08-24T04:27:32;16.00;99.90
16736;DHT22;17990;49.548;9.730;2023-08-24T04:29:59;16.00;99.90
16736;DHT22;17990;49.548;9.730;2023-08-24T04:32:27;16.10;99.90
16736;DHT22;17990;49.548;9.730;2023-08-24T04:34:54;16.20;99.90
16736;DHT22;17990;49.548;9.730;2023-08-24T04:37:22;16.20;99.90
16736;DHT22;17990;49.548;9.730;2023-08-24T04:39:49;16.30;99.90
16736;DHT22;17990;49.548;9.730;2023-08-24T04:42:20;16.30;99.90
16736;DHT22;17990;49.548;9.730;2023-08-24T04:44:47;16.30;99.90
16736;DHT22;17990;49.548;9.730;2023-08-24T04:47:14;16.30;99.90
16736;DHT22;17990;49.548;9.730;2023-08-24T04:49:40;16.20;99.90
16736;DHT22;17990;49.548;9.730;2023-08-24T04:52:07;16.10;99.90
16736;DHT22;17990;49.548;9.730;2023-08-24T04:54:35;16.20;99.90
16736;DHT22;17990;49.548;9.730;2023-08-24T04:57:02;16.30;99.90
16736;DHT22;17990;49.548;9.730;2023-08-24T04:59:29;16.30;99.90
16736;DHT22;17990;49.548;9.730;2023-08-24T05:01:55;16.30;99.90
16736;DHT22;17990;49.548;9.730;2023-08-24T05:04:22;16.30;99.90
16736;DHT22;17990;49.548;9.730;2023-08-24T05:06:49;16.40;99.90
16736;DHT22;17990;49.548;9.730;2023-08-24T05:09:15;16.50;99.90
16736;DHT22;17990;49.548;9.730;2023-08-24T05:11:44;16.40;99.90
16736;DHT22;17990;49.548;9.730;2023-08-24T05:14:10;16.20;99.90
16736;DHT22;17990;49.548;9.730;2023-08-24T05:16:39;16.20;99.90
16736;DHT22;17990;49.548;9.730;2023-08-24T05:19:06;16.10;99.90
16736;DHT22;17990;49.548;9.730;2023-08-24T05:21:32;16.00;99.90
16736;DHT22;17990;49.548;9.730;2023-08-24T05:23:59;16.10;99.90
16736;DHT22;17990;49.548;9.730;2023-08-24T05:26:26;16.30;99.90
16736;DHT22;17990;49.548;9.730;2023-08-24T05:28:54;16.40;99.90
16736;DHT22;17990;49.548;9.730;2023-08-24T05:31:20;16.60;99.90
16736;DHT22;17990;49.548;9.730;2023-08-24T05:33:47;16.50;99.90
16736;DHT22;17990;49.548;9.730;2023-08-24T05:36:14;16.30;99.90
16736;DHT22;17990;49.548;9.730;2023-08-24T05:38:41;16.30;99.90
16736;DHT22;17990;49.548;9.730;2023-08-24T05:41:12;16.40;99.90
16736;DHT22;17990;49.548;9.730;2023-08-24T05:43:39;16.70;99.90
16736;DHT22;17990;49.548;9.730;2023-08-24T05:46:07;16.90;99.90
16736;DHT22;17990;49.548;9.730;2023-08-24T05:48:34;17.00;99.90
16736;DHT22;17990;49.548;9.730;2023-08-24T05:51:01;17.20;99.90
16736;DHT22;17990;49.548;9.730;2023-08-24T05:53:27;17.40;99.90
16736;DHT22;17990;49.548;9.730;2023-08-24T05:55:57;17.60;99.90
16736;DHT22;17990;49.548;9.730;2023-08-24T05:58:24;17.80;99.90
16736;DHT22;17990;49.548;9.730;2023-08-24T06:00:56;18.00;99.90
16736;DHT22;17990;49.548;9.730;2023-08-24T06:03:24;18.30;99.90
16736;DHT22;17990;49.548;9.730;2023-08-24T06:05:51;18.60;99.90
16736;DHT22;17990;49.548;9.730;2023-08-24T06:08:18;18.80;99.90
16736;DHT22;17990;49.548;9.730;2023-08-24T06:10:45;19.20;99.90
16736;DHT22;17990;49.548;9.730;2023-08-24T06:13:11;20.20;99.90
16736;DHT22;17990;49.548;9.730;2023-08-24T06:15:38;21.70;99.90
16736;DHT22;17990;49.548;9.730;2023-08-24T06:18:05;20.90;99.90
16736;DHT22;17990;49.548;9.730;2023-08-24T06:20:33;20.20;99.90
16736;DHT22;17990;49.548;9.730;2023-08-24T06:23:00;19.80;99.90
16736;DHT22;17990;49.548;9.730;2023-08-24T06:25:27;19.70;99.90
16736;DHT22;17990;49.548;9.730;2023-08-24T06:27:54;19.50;99.90
16736;DHT22;17990;49.548;9.730;2023-08-24T06:30:21;19.50;99.90
16736;DHT22;17990;49.548;9.730;2023-08-24T06:32:48;19.50;99.90
16736;DHT22;17990;49.548;9.730;2023-08-24T06:35:14;19.50;99.90
16736;DHT22;17990;49.548;9.730;2023-08-24T06:37:43;19.50;99.90
16736;DHT22;17990;49.548;9.730;2023-08-24T06:40:11;19.50;99.90
16736;DHT22;17990;49.548;9.730;2023-08-24T06:42:38;19.30;99.90
16736;DHT22;17990;49.548;9.730;2023-08-24T06:45:06;19.10;99.90
16736;DHT22;17990;49.548;9.730;2023-08-24T06:47:35;19.10;99.90
16736;DHT22;17990;49.548;9.730;2023-08-24T06:50:02;19.10;99.90
16736;DHT22;17990;49.548;9.730;2023-08-24T06:52:29;19.10;99.90
16736;DHT22;17990;49.548;9.730;2023-08-24T06:54:57;19.20;99.90
16736;DHT22;17990;49.548;9.730;2023-08-24T06:57:23;19.40;99.90
16736;DHT22;17990;49.548;9.730;2023-08-24T06:59:50;19.60;99.90
16736;DHT22;17990;49.548;9.730;2023-08-24T07:02:17;20.20;99.90
16736;DHT22;17990;49.548;9.730;2023-08-24T07:04:44;21.50;99.90
16736;DHT22;17990;49.548;9.730;2023-08-24T07:07:11;25.70;99.90
16736;DHT22;17990;49.548;9.730;2023-08-24T07:09:38;27.70;99.90
16736;DHT22;17990;49.548;9.730;2023-08-24T07:12:06;28.70;99.90
16736;DHT22;17990;49.548;9.730;2023-08-24T07:14:35;28.40;99.90
16736;DHT22;17990;49.548;9.730;2023-08-24T07:17:02;30.80;99.90
16736;DHT22;17990;49.548;9.730;2023-08-24T07:19:29;32.40;98.20
16736;DHT22;17990;49.548;9.730;2023-08-24T07:21:55;32.80;95.70
16736;DHT22;17990;49.548;9.730;2023-08-24T07:24:22;33.70;93.30
16736;DHT22;17990;49.548;9.730;2023-08-24T07:26:52;31.20;95.10
16736;DHT22;17990;49.548;9.730;2023-08-24T07:29:20;28.70;98.60
16736;DHT22;17990;49.548;9.730;2023-08-24T07:31:47;27.10;99.90
16736;DHT22;17990;49.548;9.730;2023-08-24T07:34:14;29.00;99.40
16736;DHT22;17990;49.548;9.730;2023-08-24T07:36:41;30.10;97.50
16736;DHT22;17990;49.548;9.730;2023-08-24T07:39:10;31.40;95.50
16736;DHT22;17990;49.548;9.730;2023-08-24T07:41:37;30.30;96.20
16736;DHT22;17990;49.548;9.730;2023-08-24T07:44:04;29.00;97.90
16736;DHT22;17990;49.548;9.730;2023-08-24T07:46:32;28.00;99.70
16736;DHT22;17990;49.548;9.730;2023-08-24T07:48:59;27.50;99.90
16736;DHT22;17990;49.548;9.730;2023-08-24T07:51:26;27.30;99.90
16736;DHT22;17990;49.548;9.730;2023-08-24T07:53:53;27.10;99.90
16736;DHT22;17990;49.548;9.730;2023-08-24T07:56:20;26.30;99.90
16736;DHT22;17990;49.548;9.730;2023-08-24T07:58:48;25.50;99.90
16736;DHT22;17990;49.548;9.730;2023-08-24T08:01:15;25.10;99.90
16736;DHT22;17990;49.548;9.730;2023-08-24T08:03:43;24.60;99.90
16736;DHT22;17990;49.548;9.730;2023-08-24T08:06:09;24.30;99.90
16736;DHT22;17990;49.548;9.730;2023-08-24T08:08:37;24.10;99.90
16736;DHT22;17990;49.548;9.730;2023-08-24T08:11:04;23.90;99.90
16736;DHT22;17990;49.548;9.730;2023-08-24T08:13:31;23.80;99.90
16736;DHT22;17990;49.548;9.730;2023-08-24T08:16:01;23.90;99.90
16736;DHT22;17990;49.548;9.730;2023-08-24T08:18:28;24.10;99.90
16736;DHT22;17990;49.548;9.730;2023-08-24T08:20:57;24.40;99.90
16736;DHT22;17990;49.548;9.730;2023-08-24T08:23:23;26.60;99.90
16736;DHT22;17990;49.548;9.730;2023-08-24T08:25:50;27.90;99.90
16736;DHT22;17990;49.548;9.730;2023-08-24T08:28:17;27.00;99.90
16736;DHT22;17990;49.548;9.730;2023-08-24T08:30:44;27.70;99.90
16736;DHT22;17990;49.548;9.730;2023-08-24T08:33:11;28.90;99.90
16736;DHT22;17990;49.548;9.730;2023-08-24T08:35:38;28.60;99.90
16736;DHT22;17990;49.548;9.730;2023-08-24T08:38:08;28.90;99.90
16736;DHT22;17990;49.548;9.730;2023-08-24T08:40:37;28.70;99.90
16736;DHT22;17990;49.548;9.730;2023-08-24T08:43:04;29.00;99.90
16736;DHT22;17990;49.548;9.730;2023-08-24T08:45:31;28.80;99.90
16736;DHT22;17990;49.548;9.730;2023-08-24T08:48:00;28.30;99.90
16736;DHT22;17990;49.548;9.730;2023-08-24T08:50:27;28.60;99.90
16736;DHT22;17990;49.548;9.730;2023-08-24T08:52:54;29.00;99.90
16736;DHT22;17990;49.548;9.730;2023-08-24T08:55:22;29.40;99.90
16736;DHT22;17990;49.548;9.730;2023-08-24T08:57:49;29.40;99.90
16736;DHT22;17990;49.548;9.730;2023-08-24T09:00:18;29.50;99.90
16736;DHT22;17990;49.548;9.730;2023-08-24T09:02:45;29.70;99.90
16736;DHT22;17990;49.548;9.730;2023-08-24T09:05:15;29.70;99.90
16736;DHT22;17990;49.548;9.730;2023-08-24T09:07:42;29.70;99.90
16736;DHT22;17990;49.548;9.730;2023-08-24T09:10:09;29.60;99.90
16736;DHT22;17990;49.548;9.730;2023-08-24T09:12:37;29.60;99.90
16736;DHT22;17990;49.548;9.730;2023-08-24T09:15:04;29.70;99.90
16736;DHT22;17990;49.548;9.730;2023-08-24T09:17:32;30.00;99.80
16736;DHT22;17990;49.548;9.730;2023-08-24T09:20:00;30.40;99.70
16736;DHT22;17990;49.548;9.730;2023-08-24T09:22:27;30.50;99.40
16736;DHT22;17990;49.548;9.730;2023-08-24T09:24:53;30.70;99.10
16736;DHT22;17990;49.548;9.730;2023-08-24T09:27:21;30.90;98.20
16736;DHT22;17990;49.548;9.730;2023-08-24T09:29:50;30.90;97.60
16736;DHT22;17990;49.548;9.730;2023-08-24T09:32:21;30.80;97.70
16736;DHT22;17990;49.548;9.730;2023-08-24T09:34:49;30.70;97.90
16736;DHT22;17990;49.548;9.730;2023-08-24T09:37:15;30.60;98.30
16736;DHT22;17990;49.548;9.730;2023-08-24T09:39:42;30.10;98.80
16736;DHT22;17990;49.548;9.730;2023-08-24T09:42:10;30.10;99.30
16736;DHT22;17990;49.548;9.730;2023-08-24T09:44:37;30.60;98.50
16736;DHT22;17990;49.548;9.730;2023-08-24T09:47:10;31.00;97.50
16736;DHT22;17990;49.548;9.730;2023-08-24T09:49:37;31.10;96.80
16736;DHT22;17990;49.548;9.730;2023-08-24T09:52:07;31.10;96.10
16736;DHT22;17990;49.548;9.730;2023-08-24T09:54:37;31.20;94.60
16736;DHT22;17990;49.548;9.730;2023-08-24T09:57:06;30.90;94.80
16736;DHT22;17990;49.548;9.730;2023-08-24T09:59:35;31.00;94.50
16736;DHT22;17990;49.548;9.730;2023-08-24T10:02:14;30.80;94.20
16736;DHT22;17990;49.548;9.730;2023-08-24T10:04:42;31.10;93.60
16736;DHT22;17990;49.548;9.730;2023-08-24T10:07:11;31.00;93.40
16736;DHT22;17990;49.548;9.730;2023-08-24T10:09:50;31.00;93.40
16736;DHT22;17990;49.548;9.730;2023-08-24T10:12:23;31.10;93.20
16736;DHT22;17990;49.548;9.730;2023-08-24T10:14:56;31.10;93.20
16736;DHT22;17990;49.548;9.730;2023-08-24T10:17:26;31.10;93.10
16736;DHT22;17990;49.548;9.730;2023-08-24T10:19:56;30.60;93.30
16736;DHT22;17990;49.548;9.730;2023-08-24T10:22:23;30.40;93.50
16736;DHT22;17990;49.548;9.730;2023-08-24T10:24:51;30.20;93.30
16736;DHT22;17990;49.548;9.730;2023-08-24T10:27:20;30.10;94.00
16736;DHT22;17990;49.548;9.730;2023-08-24T10:29:48;30.10;94.30
16736;DHT22;17990;49.548;9.730;2023-08-24T10:32:15;30.10;94.30
16736;DHT22;17990;49.548;9.730;2023-08-24T10:34:44;30.20;94.40
16736;DHT22;17990;49.548;9.730;2023-08-24T10:37:11;30.10;93.90
16736;DHT22;17990;49.548;9.730;2023-08-24T10:39:44;30.20;94.10
16736;DHT22;17990;49.548;9.730;2023-08-24T10:42:11;30.10;94.20
16736;DHT22;17990;49.548;9.730;2023-08-24T10:44:39;30.10;94.10
16736;DHT22;17990;49.548;9.730;2023-08-24T10:47:13;30.30;94.30
16736;DHT22;17990;49.548;9.730;2023-08-24T10:49:40;30.10;94.40
16736;DHT22;17990;49.548;9.730;2023-08-24T10:52:22;30.50;94.40
16736;DHT22;17990;49.548;9.730;2023-08-24T10:54:49;30.70;93.90
16736;DHT22;17990;49.548;9.730;2023-08-24T10:57:21;30.80;93.90
16736;DHT22;17990;49.548;9.730;2023-08-24T11:00:06;30.80;94.10
16736;DHT22;17990;49.548;9.730;2023-08-24T11:02:45;30.90;94.00
16736;DHT22;17990;49.548;9.730;2023-08-24T11:05:17;30.90;94.10
16736;DHT22;17990;49.548;9.730;2023-08-24T11:07:55;31.10;94.00
16736;DHT22;17990;49.548;9.730;2023-08-24T11:10:24;31.40;93.70
16736;DHT22;17990;49.548;9.730;2023-08-24T11:13:04;31.10;94.10
16736;DHT22;17990;49.548;9.730;2023-08-24T11:15:31;30.90;94.30
16736;DHT22;17990;49.548;9.730;2023-08-24T11:18:28;31.10;94.20
16736;DHT22;17990;49.548;9.730;2023-08-24T11:20:56;31.20;94.10
16736;DHT22;17990;49.548;9.730;2023-08-24T11:23:28;31.10;93.80
16736;DHT22;17990;49.548;9.730;2023-08-24T11:25:57;31.20;93.70
16736;DHT22;17990;49.548;9.730;2023-08-24T11:28:25;31.50;93.30
16736;DHT22;17990;49.548;9.730;2023-08-24T11:30:52;31.40;93.20
16736;DHT22;17990;49.548;9.730;2023-08-24T11:33:27;31.50;92.80
16736;DHT22;17990;49.548;9.730;2023-08-24T11:35:55;31.60;92.80
16736;DHT22;17990;49.548;9.730;2023-08-24T11:38:22;31.80;92.40
16736;DHT22;17990;49.548;9.730;2023-08-24T11:40:50;32.10;92.30
16736;DHT22;17990;49.548;9.730;2023-08-24T11:43:23;32.00;92.00
16736;DHT22;17990;49.548;9.730;2023-08-24T11:45:50;32.20;91.80
16736;DHT22;17990;49.548;9.730;2023-08-24T11:48:17;32.40;91.40
16736;DHT22;17990;49.548;9.730;2023-08-24T11:50:44;32.80;91.20
16736;DHT22;17990;49.548;9.730;2023-08-24T11:53:10;32.80;90.50
16736;DHT22;17990;49.548;9.730;2023-08-24T11:55:39;32.80;90.50
16736;DHT22;17990;49.548;9.730;2023-08-24T11:58:14;33.30;90.30
16736;DHT22;17990;49.548;9.730;2023-08-24T12:00:42;33.60;90.00
16736;DHT22;17990;49.548;9.730;2023-08-24T12:03:09;33.60;88.30
16736;DHT22;17990;49.548;9.730;2023-08-24T12:05:36;33.40;88.20
16736;DHT22;17990;49.548;9.730;2023-08-24T12:08:03;33.20;89.30
16736;DHT22;17990;49.548;9.730;2023-08-24T12:10:30;32.90;89.60
16736;DHT22;17990;49.548;9.730;2023-08-24T12:13:04;32.90;89.60
16736;DHT22;17990;49.548;9.730;2023-08-24T12:15:35;32.60;89.10
16736;DHT22;17990;49.548;9.730;2023-08-24T12:18:09;32.60;89.40
16736;DHT22;17990;49.548;9.730;2023-08-24T12:20:36;32.80;89.10
16736;DHT22;17990;49.548;9.730;2023-08-24T12:23:04;33.10;88.40
16736;DHT22;17990;49.548;9.730;2023-08-24T12:25:36;33.00;88.50
16736;DHT22;17990;49.548;9.730;2023-08-24T12:28:10;33.10;87.90
16736;DHT22;17990;49.548;9.730;2023-08-24T12:30:45;33.20;88.30
16736;DHT22;17990;49.548;9.730;2023-08-24T12:33:22;33.00;88.30
16736;DHT22;17990;49.548;9.730;2023-08-24T12:35:49;33.00;88.20
16736;DHT22;17990;49.548;9.730;2023-08-24T12:38:16;33.10;88.30
16736;DHT22;17990;49.548;9.730;2023-08-24T12:40:43;33.20;87.40
16736;DHT22;17990;49.548;9.730;2023-08-24T12:43:10;33.30;87.90
16736;DHT22;17990;49.548;9.730;2023-08-24T12:45:37;33.20;87.70
16736;DHT22;17990;49.548;9.730;2023-08-24T12:48:05;32.90;88.10
16736;DHT22;17990;49.548;9.730;2023-08-24T12:50:32;32.60;88.00
16736;DHT22;17990;49.548;9.730;2023-08-24T12:52:59;32.60;88.80
16736;DHT22;17990;49.548;9.730;2023-08-24T12:55:26;32.40;89.00
16736;DHT22;17990;49.548;9.730;2023-08-24T12:57:52;32.60;89.40
16736;DHT22;17990;49.548;9.730;2023-08-24T13:00:20;32.80;89.00
16736;DHT22;17990;49.548;9.730;2023-08-24T13:02:47;33.00;88.60
16736;DHT22;17990;49.548;9.730;2023-08-24T13:05:16;33.10;88.40
16736;DHT22;17990;49.548;9.730;2023-08-24T13:07:42;33.50;87.20
16736;DHT22;17990;49.548;9.730;2023-08-24T13:10:09;33.60;86.70
16736;DHT22;17990;49.548;9.730;2023-08-24T13:12:37;33.70;87.10
16736;DHT22;17990;49.548;9.730;2023-08-24T13:15:04;33.70;86.40
16736;DHT22;17990;49.548;9.730;2023-08-24T13:17:31;33.60;86.80
16736;DHT22;17990;49.548;9.730;2023-08-24T13:19:58;33.80;86.80
16736;DHT22;17990;49.548;9.730;2023-08-24T13:22:26;34.10;86.00
16736;DHT22;17990;49.548;9.730;2023-08-24T13:24:53;34.20;86.40
16736;DHT22;17990;49.548;9.730;2023-08-24T13:27:19;34.40;86.10
16736;DHT22;17990;49.548;9.730;2023-08-24T13:29:46;34.40;85.60
16736;DHT22;17990;49.548;9.730;2023-08-24T13:32:13;34.20;85.40
16736;DHT22;17990;49.548;9.730;2023-08-24T13:34:40;34.40;86.40
16736;DHT22;17990;49.548;9.730;2023-08-24T13:37:06;34.50;86.00
16736;DHT22;17990;49.548;9.730;2023-08-24T13:39:34;34.40;85.00
16736;DHT22;17990;49.548;9.730;2023-08-24T13:42:01;34.40;85.40
16736;DHT22;17990;49.548;9.730;2023-08-24T13:44:28;34.30;85.40
16736;DHT22;17990;49.548;9.730;2023-08-24T13:46:55;34.20;85.40
16736;DHT22;17990;49.548;9.730;2023-08-24T13:49:22;34.20;84.80
16736;DHT22;17990;49.548;9.730;2023-08-24T13:51:48;34.30;85.10
16736;DHT22;17990;49.548;9.730;2023-08-24T13:54:16;34.20;84.80
16736;DHT22;17990;49.548;9.730;2023-08-24T13:56:45;34.00;84.70
16736;DHT22;17990;49.548;9.730;2023-08-24T13:59:12;33.70;83.90
16736;DHT22;17990;49.548;9.730;2023-08-24T14:01:39;33.80;84.70
16736;DHT22;17990;49.548;9.730;2023-08-24T14:04:06;34.00;85.60
16736;DHT22;17990;49.548;9.730;2023-08-24T14:06:34;34.00;85.70
16736;DHT22;17990;49.548;9.730;2023-08-24T14:09:02;34.10;85.60
16736;DHT22;17990;49.548;9.730;2023-08-24T14:11:30;34.20;84.80
16736;DHT22;17990;49.548;9.730;2023-08-24T14:13:59;34.00;84.70
16736;DHT22;17990;49.548;9.730;2023-08-24T14:16:26;33.70;85.20
16736;DHT22;17990;49.548;9.730;2023-08-24T14:18:53;33.50;85.60
16736;DHT22;17990;49.548;9.730;2023-08-24T14:21:20;33.30;86.00
16736;DHT22;17990;49.548;9.730;2023-08-24T14:23:48;33.40;86.10
16736;DHT22;17990;49.548;9.730;2023-08-24T14:26:15;33.50;85.90
16736;DHT22;17990;49.548;9.730;2023-08-24T14:28:49;33.70;85.80
16736;DHT22;17990;49.548;9.730;2023-08-24T14:31:17;33.70;86.10
16736;DHT22;17990;49.548;9.730;2023-08-24T14:33:44;33.80;86.60
16736;DHT22;17990;49.548;9.730;2023-08-24T14:36:11;33.90;87.40
16736;DHT22;17990;49.548;9.730;2023-08-24T14:38:39;33.70;87.20
16736;DHT22;17990;49.548;9.730;2023-08-24T14:41:06;33.70;87.30
16736;DHT22;17990;49.548;9.730;2023-08-24T14:43:33;33.70;87.90
16736;DHT22;17990;49.548;9.730;2023-08-24T14:46:00;33.70;87.60
16736;DHT22;17990;49.548;9.730;2023-08-24T14:48:29;33.50;86.30
16736;DHT22;17990;49.548;9.730;2023-08-24T14:50:56;33.00;87.20
16736;DHT22;17990;49.548;9.730;2023-08-24T14:53:23;33.00;87.50
16736;DHT22;17990;49.548;9.730;2023-08-24T14:55:50;32.90;87.60
16736;DHT22;17990;49.548;9.730;2023-08-24T14:58:17;33.00;87.70
16736;DHT22;17990;49.548;9.730;2023-08-24T15:00:43;33.10;87.60
16736;DHT22;17990;49.548;9.730;2023-08-24T15:03:11;33.20;87.40
16736;DHT22;17990;49.548;9.730;2023-08-24T15:05:43;33.20;87.60
16736;DHT22;17990;49.548;9.730;2023-08-24T15:08:09;33.10;88.10
16736;DHT22;17990;49.548;9.730;2023-08-24T15:10:37;33.00;88.30
16736;DHT22;17990;49.548;9.730;2023-08-24T15:13:04;33.00;88.90
16736;DHT22;17990;49.548;9.730;2023-08-24T15:15:31;32.90;89.60
16736;DHT22;17990;49.548;9.730;2023-08-24T15:17:58;32.80;90.70
16736;DHT22;17990;49.548;9.730;2023-08-24T15:20:25;32.60;91.80
16736;DHT22;17990;49.548;9.730;2023-08-24T15:22:53;32.40;92.70
16736;DHT22;17990;49.548;9.730;2023-08-24T15:25:19;32.10;93.00
16736;DHT22;17990;49.548;9.730;2023-08-24T15:27:47;32.00;92.60
16736;DHT22;17990;49.548;9.730;2023-08-24T15:30:13;31.80;92.80
16736;DHT22;17990;49.548;9.730;2023-08-24T15:32:40;31.80;93.30
16736;DHT22;17990;49.548;9.730;2023-08-24T15:35:07;31.70;93.50